Time;durP1;ratioP1;P1;durP2;ratioP2;P2;SDS_P1;SDS_P2;PMS_P1;PMS_P2;Temp;Humidity;BMP_temperature;BMP_pressure;BME280_temperature;BME280_humidity;BME280_pressure;Samples;Min_cycle;Max_cycle;Signal;HPM_P1;HPM_P2
2020/12/09 00:01:11;;;;;;;5.27;4.70;;;;;;;1.81;100.00;97993.47;3807215;76;396059;-76
2020/12/09 00:06:17;;;;;;;2.47;2.37;;;;;;;2.06;100.00;98002.66;3806472;76;396028;-76
2020/12/09 00:11:22;;;;;;;2.70;2.60;;;;;;;2.19;100.00;97999.13;3818842;76;396091;-76
2020/12/09 00:16:27;;;;;;;3.00;2.60;;;;;;;2.14;100.00;98000.23;3806153;76;396573;-76
2020/12/09 00:21:35;;;;;;;3.73;3.03;;;;;;;2.12;100.00;97999.05;3819088;76;396122;-76
2020/12/09 00:26:40;;;;;;;1.87;1.77;;;;;;;2.07;100.00;97998.03;3819393;76;393981;-76
2020/12/09 00:31:45;;;;;;;4.70;2.40;;;;;;;2.01;100.00;97998.16;3799289;76;396095;-76
2020/12/09 00:36:50;;;;;;;4.00;3.47;;;;;;;2.00;100.00;98004.73;3789848;76;396290;-76
2020/12/09 00:41:55;;;;;;;2.70;2.20;;;;;;;2.04;100.00;98010.41;3819066;76;396345;-76
2020/12/09 00:47:01;;;;;;;4.50;3.80;;;;;;;2.01;100.00;98024.69;3819166;76;396104;-76
2020/12/09 00:52:06;;;;;;;7.07;2.67;;;;;;;1.99;100.00;98022.14;3792905;76;396079;-76
2020/12/09 00:57:11;;;;;;;2.83;2.53;;;;;;;1.94;100.00;98030.61;3819898;75;396068;-76
2020/12/09 01:02:16;;;;;;;2.33;1.67;;;;;;;1.89;100.00;98036.34;3881677;75;391897;-76
2020/12/09 01:07:21;;;;;;;2.63;2.43;;;;;;;1.87;100.00;98046.20;3879349;74;396304;-76
2020/12/09 01:12:27;;;;;;;2.97;1.70;;;;;;;1.93;100.00;98037.19;3882857;75;393950;-76
2020/12/09 01:17:32;;;;;;;2.07;1.60;;;;;;;1.82;100.00;98039.73;3884316;75;396074;-76
2020/12/09 01:22:37;;;;;;;3.57;2.03;;;;;;;1.83;100.00;98049.43;3882791;75;396269;-76
2020/12/09 01:27:42;;;;;;;1.83;1.50;;;;;;;1.96;100.00;98051.34;3882811;75;395297;-76
2020/12/09 01:32:47;;;;;;;6.63;2.80;;;;;;;1.94;100.00;98060.44;3883188;75;396077;-77
2020/12/09 01:37:53;;;;;;;6.20;1.87;;;;;;;1.96;100.00;98067.61;3882976;75;396085;-76
2020/12/09 01:42:58;;;;;;;2.40;1.87;;;;;;;1.98;100.00;98078.88;3883283;75;396081;-76
2020/12/09 01:48:06;;;;;;;4.80;3.27;;;;;;;1.97;100.00;98082.73;3883262;75;396426;-76
2020/12/09 01:53:11;;;;;;;2.13;1.93;;;;;;;2.02;100.00;98068.29;3884988;75;394073;-77
2020/12/09 01:58:17;;;;;;;1.73;1.00;;;;;;;2.04;100.00;98066.55;3883823;75;394017;-77
2020/12/09 02:03:22;;;;;;;7.33;3.30;;;;;;;2.06;100.00;98077.83;3883243;75;396106;-77
2020/12/09 02:08:27;;;;;;;3.43;3.23;;;;;;;2.04;100.00;98077.41;3878899;75;396284;-77
2020/12/09 02:13:33;;;;;;;1.00;0.90;;;;;;;2.09;100.00;98077.87;3870562;75;387751;-76
2020/12/09 02:18:38;;;;;;;6.77;2.70;;;;;;;2.03;100.00;98082.62;3860403;75;396296;-77
2020/12/09 02:23:43;;;;;;;6.33;4.03;;;;;;;2.06;100.00;98081.89;3861071;75;387751;-77
2020/12/09 02:28:48;;;;;;;3.43;2.93;;;;;;;1.98;100.00;98081.59;3860644;75;396079;-77
2020/12/09 02:33:54;;;;;;;4.60;4.27;;;;;;;1.85;100.00;98095.95;3860588;75;396283;-77
2020/12/09 02:39:00;;;;;;;2.73;1.77;;;;;;;1.93;100.00;98099.55;3860747;75;396020;-77
2020/12/09 02:44:05;;;;;;;3.20;2.97;;;;;;;1.88;100.00;98106.62;3861036;75;396030;-77
2020/12/09 02:49:10;;;;;;;3.77;3.47;;;;;;;2.13;100.00;98106.39;3859159;75;396309;-77
2020/12/09 02:54:15;;;;;;;4.70;2.63;;;;;;;1.98;100.00;98106.00;3860269;75;396038;-77
2020/12/09 02:59:20;;;;;;;6.73;3.27;;;;;;;1.80;100.00;98111.73;3860414;75;389774;-77
2020/12/09 03:04:26;;;;;;;5.43;2.50;;;;;;;1.86;100.00;98117.05;3860990;75;393947;-77
2020/12/09 03:09:31;;;;;;;0.97;0.83;;;;;;;2.01;100.00;98116.13;3851956;75;383764;-77
2020/12/09 03:14:36;;;;;;;1.00;0.90;;;;;;;2.06;100.00;98118.51;3850407;75;392163;-77
2020/12/09 03:19:41;;;;;;;2.20;1.70;;;;;;;1.82;100.00;98114.88;3850549;75;392131;-76
2020/12/09 03:24:46;;;;;;;2.90;0.97;;;;;;;1.69;100.00;98118.95;3849900;75;392959;-77
2020/12/09 03:29:52;;;;;;;1.73;1.33;;;;;;;1.70;100.00;98117.22;3849311;76;396027;-77
2020/12/09 03:34:58;;;;;;;6.53;3.30;;;;;;;1.97;100.00;98132.91;3850445;75;394185;-76
2020/12/09 03:40:03;;;;;;;2.70;2.30;;;;;;;1.86;100.00;98125.98;3849604;75;396103;-77
2020/12/09 03:45:08;;;;;;;7.57;3.63;;;;;;;1.81;100.00;98124.95;3850386;75;393943;-77
2020/12/09 03:50:13;;;;;;;1.47;1.37;;;;;;;1.79;100.00;98125.87;3850113;75;391948;-76
2020/12/09 03:55:18;;;;;;;7.63;2.07;;;;;;;1.86;100.00;98144.96;3850014;75;396146;-76
2020/12/09 04:00:23;;;;;;;1.50;1.40;;;;;;;1.76;100.00;98151.59;3850911;75;391935;-76
2020/12/09 04:05:28;;;;;;;4.57;1.87;;;;;;;1.67;100.00;98148.34;3852554;75;394318;-77
2020/12/09 04:10:33;;;;;;;2.70;2.47;;;;;;;1.70;100.00;98143.53;3878424;75;396321;-77
2020/12/09 04:15:39;;;;;;;6.33;2.30;;;;;;;1.76;100.00;98146.16;3878194;75;396088;-77
2020/12/09 04:20:44;;;;;;;9.13;3.30;;;;;;;1.94;100.00;98147.22;3878783;75;394988;-77
2020/12/09 04:25:49;;;;;;;7.93;1.50;;;;;;;1.92;100.00;98153.57;3878738;75;395258;-77
2020/12/09 04:30:54;;;;;;;2.73;2.30;;;;;;;1.87;100.00;98152.51;3878179;75;396086;-76
2020/12/09 04:36:01;;;;;;;2.30;1.53;;;;;;;1.80;100.00;98149.70;3878372;75;396088;-77
2020/12/09 04:41:06;;;;;;;4.20;2.40;;;;;;;1.72;100.00;98154.80;3878212;75;391860;-76
2020/12/09 04:46:12;;;;;;;4.77;3.13;;;;;;;1.86;100.00;98161.23;3878699;75;395055;-76
2020/12/09 04:51:35;;;;;;;5.93;2.50;;;;;;;1.82;100.00;98166.39;3878274;75;391900;-76
2020/12/09 04:56:43;;;;;;;4.90;3.57;;;;;;;1.83;100.00;98155.75;3874266;75;396026;-76
2020/12/09 05:02:05;;;;;;;3.30;3.00;;;;;;;1.80;100.00;98152.41;3874698;75;396026;-76
2020/12/09 05:07:11;;;;;;;23.90;2.80;;;;;;;1.67;100.00;98138.85;3920533;74;396070;-77
2020/12/09 05:12:18;;;;;;;2.03;1.90;;;;;;;1.59;100.00;98126.34;3943569;74;396033;-77
2020/12/09 05:17:24;;;;;;;1.77;1.67;;;;;;;1.65;100.00;98130.30;3943667;74;392999;-77
2020/12/09 05:22:31;;;;;;;3.83;3.13;;;;;;;1.67;100.00;98138.85;3943186;74;396025;-77
2020/12/09 05:27:36;;;;;;;2.90;1.97;;;;;;;1.43;100.00;98139.25;3960370;74;391859;-77
2020/12/09 05:32:55;;;;;;;3.47;1.27;;;;;;;1.40;100.00;98151.38;3956635;73;396064;-77
2020/12/09 05:38:15;;;;;;;2.33;1.80;;;;;;;1.36;100.00;98157.30;3969022;73;396040;-76
2020/12/09 05:43:20;;;;;;;1.93;1.83;;;;;;;1.47;100.00;98154.20;3915135;74;391851;-77
2020/12/09 05:48:26;;;;;;;0.90;0.70;;;;;;;1.48;100.00;98168.73;3979160;73;383858;-77
2020/12/09 05:53:35;;;;;;;3.90;2.23;;;;;;;1.38;100.00;98177.46;3949824;74;396267;-77
2020/12/09 05:58:49;;;;;;;2.20;1.50;;;;;;;1.42;100.00;98189.16;3927638;74;391893;-77
2020/12/09 06:03:57;;;;;;;2.70;2.50;;;;;;;1.36;100.00;98193.31;3883826;75;394221;-77
2020/12/09 06:09:02;;;;;;;1.13;1.03;;;;;;;1.50;100.00;98207.66;3883677;74;395029;-77
2020/12/09 06:14:10;;;;;;;3.40;3.13;;;;;;;1.56;100.00;98207.59;3882863;75;396024;-77
2020/12/09 06:19:15;;;;;;;2.77;2.20;;;;;;;1.50;100.00;98222.56;3883475;75;396267;-76
2020/12/09 06:24:20;;;;;;;1.80;1.70;;;;;;;1.52;100.00;98227.85;3882880;75;396030;-77
2020/12/09 06:29:26;;;;;;;2.90;2.50;;;;;;;1.51;100.00;98222.22;3883603;75;396041;-76
2020/12/09 06:34:31;;;;;;;2.07;1.53;;;;;;;1.57;100.00;98237.61;3852950;76;396293;-76
2020/12/09 06:39:36;;;;;;;2.23;2.13;;;;;;;1.50;100.00;98231.48;3896633;74;396368;-77
2020/12/09 06:44:49;;;;;;;5.27;2.93;;;;;;;1.37;100.00;98227.39;3896871;74;396283;-77
2020/12/09 06:49:55;;;;;;;2.67;1.97;;;;;;;1.40;100.00;98225.89;3896919;74;396065;-77
2020/12/09 06:55:01;;;;;;;1.70;1.03;;;;;;;1.42;100.00;98228.44;3897058;74;393189;-77
2020/12/09 07:00:16;;;;;;;5.70;3.27;;;;;;;1.44;100.00;98242.42;3895398;74;396061;-77
2020/12/09 07:05:29;;;;;;;1.57;1.47;;;;;;;1.52;100.00;98256.86;3893870;75;393942;-76
2020/12/09 07:10:35;;;;;;;1.50;1.27;;;;;;;1.43;100.00;98262.53;3869947;75;394182;-77
2020/12/09 07:15:47;;;;;;;1.77;1.67;;;;;;;1.30;100.00;98271.94;3860339;75;396258;-77
2020/12/09 07:20:52;;;;;;;2.57;2.27;;;;;;;1.26;100.00;98282.49;3860971;75;391908;-77
2020/12/09 07:26:00;;;;;;;9.50;5.50;;;;;;;1.27;100.00;98301.67;3859987;75;396351;-77
2020/12/09 07:31:09;;;;;;;1.87;1.77;;;;;;;1.31;100.00;98297.12;3859872;75;394984;-76
2020/12/09 07:36:15;;;;;;;3.40;3.10;;;;;;;1.32;100.00;98310.30;3860462;75;396075;-77
2020/12/09 07:41:20;;;;;;;4.93;3.00;;;;;;;1.35;100.00;98325.05;3859680;75;396333;-77
2020/12/09 07:46:25;;;;;;;2.50;1.90;;;;;;;1.33;100.00;98326.77;3859414;75;394063;-78
2020/12/09 07:51:30;;;;;;;1.97;1.73;;;;;;;1.38;100.00;98331.13;3860140;75;396052;-83
2020/12/09 07:56:35;;;;;;;1.33;1.23;;;;;;;1.65;100.00;98325.45;3860809;75;383756;-74
2020/12/09 08:01:56;;;;;;;5.23;2.37;;;;;;;1.48;100.00;98335.97;3824941;74;395048;-74
2020/12/09 08:08:08;;;;;;;1.63;1.53;;;;;;;1.40;100.00;98339.09;3700632;77;383783;-75
2020/12/09 08:18:42;;;;;;;4.50;1.10;;;;;;;1.36;100.00;98340.97;3815773;75;394031;-74
